sensor_id;sensor_type;location;lat;lon;timestamp;P1;durP1;ratioP1;P2;durP2;ratioP2
55222;SDS011;41090;48.632;12.428;2023-04-06T00:01:20;8.20;;;6.50;;
55222;SDS011;41090;48.632;12.428;2023-04-06T00:03:45;8.73;;;6.37;;
55222;SDS011;41090;48.632;12.428;2023-04-06T00:06:10;6.43;;;5.83;;
55222;SDS011;41090;48.632;12.428;2023-04-06T00:08:36;7.63;;;6.10;;
55222;SDS011;41090;48.632;12.428;2023-04-06T00:11:01;6.47;;;5.57;;
55222;SDS011;41090;48.632;12.428;2023-04-06T00:13:26;7.67;;;5.40;;
55222;SDS011;41090;48.632;12.428;2023-04-06T00:15:52;6.37;;;5.50;;
55222;SDS011;41090;48.632;12.428;2023-04-06T00:18:17;10.83;;;5.90;;
55222;SDS011;41090;48.632;12.428;2023-04-06T00:20:42;7.47;;;5.73;;
55222;SDS011;41090;48.632;12.428;2023-04-06T00:23:07;6.37;;;5.33;;
55222;SDS011;41090;48.632;12.428;2023-04-06T00:25:33;8.53;;;5.47;;
55222;SDS011;41090;48.632;12.428;2023-04-06T00:27:58;7.37;;;5.80;;
55222;SDS011;41090;48.632;12.428;2023-04-06T00:30:23;6.80;;;5.10;;
55222;SDS011;41090;48.632;12.428;2023-04-06T00:32:48;7.97;;;5.97;;
55222;SDS011;41090;48.632;12.428;2023-04-06T00:35:14;6.07;;;5.43;;
55222;SDS011;41090;48.632;12.428;2023-04-06T00:37:41;6.77;;;5.67;;
55222;SDS011;41090;48.632;12.428;2023-04-06T00:40:07;6.87;;;5.53;;
55222;SDS011;41090;48.632;12.428;2023-04-06T00:42:33;6.23;;;5.27;;
55222;SDS011;41090;48.632;12.428;2023-04-06T00:44:59;6.57;;;5.37;;
55222;SDS011;41090;48.632;12.428;2023-04-06T00:47:24;7.23;;;5.60;;
55222;SDS011;41090;48.632;12.428;2023-04-06T00:49:51;6.70;;;5.90;;
55222;SDS011;41090;48.632;12.428;2023-04-06T00:52:16;6.13;;;5.27;;
55222;SDS011;41090;48.632;12.428;2023-04-06T00:54:42;6.57;;;5.87;;
55222;SDS011;41090;48.632;12.428;2023-04-06T00:57:07;10.10;;;6.47;;
55222;SDS011;41090;48.632;12.428;2023-04-06T00:59:32;8.13;;;6.43;;
55222;SDS011;41090;48.632;12.428;2023-04-06T01:01:57;7.43;;;6.23;;
55222;SDS011;41090;48.632;12.428;2023-04-06T01:04:23;10.40;;;6.10;;
55222;SDS011;41090;48.632;12.428;2023-04-06T01:06:48;10.30;;;6.00;;
55222;SDS011;41090;48.632;12.428;2023-04-06T01:09:14;6.50;;;5.57;;
55222;SDS011;41090;48.632;12.428;2023-04-06T01:11:39;7.90;;;5.63;;
55222;SDS011;41090;48.632;12.428;2023-04-06T01:14:05;6.00;;;5.40;;
55222;SDS011;41090;48.632;12.428;2023-04-06T01:16:30;9.10;;;6.30;;
55222;SDS011;41090;48.632;12.428;2023-04-06T01:18:55;6.30;;;5.43;;
55222;SDS011;41090;48.632;12.428;2023-04-06T01:21:28;5.70;;;5.10;;
55222;SDS011;41090;48.632;12.428;2023-04-06T01:23:53;7.57;;;5.33;;
55222;SDS011;41090;48.632;12.428;2023-04-06T01:26:18;7.63;;;5.70;;
55222;SDS011;41090;48.632;12.428;2023-04-06T01:28:44;7.30;;;6.00;;
55222;SDS011;41090;48.632;12.428;2023-04-06T01:31:10;9.20;;;6.13;;
55222;SDS011;41090;48.632;12.428;2023-04-06T01:33:35;7.57;;;6.13;;
55222;SDS011;41090;48.632;12.428;2023-04-06T01:36:01;7.47;;;5.90;;
55222;SDS011;41090;48.632;12.428;2023-04-06T01:38:26;6.60;;;5.87;;
55222;SDS011;41090;48.632;12.428;2023-04-06T01:40:52;7.50;;;5.57;;
55222;SDS011;41090;48.632;12.428;2023-04-06T01:43:17;7.63;;;5.90;;
55222;SDS011;41090;48.632;12.428;2023-04-06T01:45:43;7.33;;;5.53;;
55222;SDS011;41090;48.632;12.428;2023-04-06T01:48:08;7.20;;;6.10;;
55222;SDS011;41090;48.632;12.428;2023-04-06T01:50:33;7.70;;;6.40;;
55222;SDS011;41090;48.632;12.428;2023-04-06T01:52:58;7.00;;;6.13;;
55222;SDS011;41090;48.632;12.428;2023-04-06T01:55:24;7.53;;;6.17;;
55222;SDS011;41090;48.632;12.428;2023-04-06T01:57:50;6.70;;;5.90;;
55222;SDS011;41090;48.632;12.428;2023-04-06T02:00:15;7.77;;;6.10;;
55222;SDS011;41090;48.632;12.428;2023-04-06T02:02:41;8.30;;;6.30;;
55222;SDS011;41090;48.632;12.428;2023-04-06T02:05:06;5.87;;;5.27;;
55222;SDS011;41090;48.632;12.428;2023-04-06T02:07:31;7.80;;;5.60;;
55222;SDS011;41090;48.632;12.428;2023-04-06T02:09:57;8.23;;;5.83;;
55222;SDS011;41090;48.632;12.428;2023-04-06T02:12:22;7.77;;;6.40;;
55222;SDS011;41090;48.632;12.428;2023-04-06T02:14:48;7.97;;;5.70;;
55222;SDS011;41090;48.632;12.428;2023-04-06T02:17:13;7.00;;;5.73;;
55222;SDS011;41090;48.632;12.428;2023-04-06T02:19:39;6.47;;;5.70;;
55222;SDS011;41090;48.632;12.428;2023-04-06T02:22:04;6.97;;;5.77;;
55222;SDS011;41090;48.632;12.428;2023-04-06T02:24:30;6.73;;;6.03;;
55222;SDS011;41090;48.632;12.428;2023-04-06T02:26:55;7.23;;;5.60;;
55222;SDS011;41090;48.632;12.428;2023-04-06T02:29:23;7.80;;;6.50;;
55222;SDS011;41090;48.632;12.428;2023-04-06T02:31:49;7.70;;;6.17;;
55222;SDS011;41090;48.632;12.428;2023-04-06T02:34:14;8.33;;;6.37;;
55222;SDS011;41090;48.632;12.428;2023-04-06T02:36:45;7.37;;;5.67;;
55222;SDS011;41090;48.632;12.428;2023-04-06T02:39:17;8.30;;;6.43;;
55222;SDS011;41090;48.632;12.428;2023-04-06T02:41:42;8.03;;;6.13;;
55222;SDS011;41090;48.632;12.428;2023-04-06T02:44:07;6.70;;;6.00;;
55222;SDS011;41090;48.632;12.428;2023-04-06T02:46:34;8.53;;;6.40;;
55222;SDS011;41090;48.632;12.428;2023-04-06T02:49:06;6.83;;;5.83;;
55222;SDS011;41090;48.632;12.428;2023-04-06T02:51:31;7.57;;;6.23;;
55222;SDS011;41090;48.632;12.428;2023-04-06T02:53:57;6.73;;;5.70;;
55222;SDS011;41090;48.632;12.428;2023-04-06T02:56:22;7.73;;;6.37;;
55222;SDS011;41090;48.632;12.428;2023-04-06T02:58:47;7.10;;;6.33;;
55222;SDS011;41090;48.632;12.428;2023-04-06T03:01:12;7.50;;;6.03;;
55222;SDS011;41090;48.632;12.428;2023-04-06T03:03:37;7.03;;;5.87;;
55222;SDS011;41090;48.632;12.428;2023-04-06T03:06:03;7.00;;;6.30;;
55222;SDS011;41090;48.632;12.428;2023-04-06T03:08:28;8.13;;;5.83;;
55222;SDS011;41090;48.632;12.428;2023-04-06T03:10:53;7.50;;;5.97;;
55222;SDS011;41090;48.632;12.428;2023-04-06T03:13:19;9.80;;;6.80;;
55222;SDS011;41090;48.632;12.428;2023-04-06T03:15:45;8.37;;;6.50;;
55222;SDS011;41090;48.632;12.428;2023-04-06T03:18:10;10.03;;;6.60;;
55222;SDS011;41090;48.632;12.428;2023-04-06T03:20:35;7.40;;;6.43;;
55222;SDS011;41090;48.632;12.428;2023-04-06T03:23:00;7.40;;;6.23;;
55222;SDS011;41090;48.632;12.428;2023-04-06T03:25:26;8.17;;;6.40;;
55222;SDS011;41090;48.632;12.428;2023-04-06T03:27:51;8.77;;;6.40;;
55222;SDS011;41090;48.632;12.428;2023-04-06T03:30:16;7.40;;;6.37;;
55222;SDS011;41090;48.632;12.428;2023-04-06T03:32:44;8.43;;;6.57;;
55222;SDS011;41090;48.632;12.428;2023-04-06T03:35:10;7.27;;;6.27;;
55222;SDS011;41090;48.632;12.428;2023-04-06T03:37:35;7.03;;;5.83;;
55222;SDS011;41090;48.632;12.428;2023-04-06T03:40:00;8.00;;;6.00;;
55222;SDS011;41090;48.632;12.428;2023-04-06T03:42:26;7.27;;;6.37;;
55222;SDS011;41090;48.632;12.428;2023-04-06T03:44:51;8.90;;;5.53;;
55222;SDS011;41090;48.632;12.428;2023-04-06T03:47:17;10.87;;;6.60;;
55222;SDS011;41090;48.632;12.428;2023-04-06T03:49:42;6.67;;;5.93;;
55222;SDS011;41090;48.632;12.428;2023-04-06T03:52:07;6.37;;;5.50;;
55222;SDS011;41090;48.632;12.428;2023-04-06T03:54:32;8.60;;;6.27;;
55222;SDS011;41090;48.632;12.428;2023-04-06T03:56:57;8.47;;;6.50;;
55222;SDS011;41090;48.632;12.428;2023-04-06T03:59:23;8.80;;;6.10;;
55222;SDS011;41090;48.632;12.428;2023-04-06T04:01:48;7.10;;;6.20;;
55222;SDS011;41090;48.632;12.428;2023-04-06T04:04:15;8.50;;;6.93;;
55222;SDS011;41090;48.632;12.428;2023-04-06T04:06:40;7.53;;;5.73;;
55222;SDS011;41090;48.632;12.428;2023-04-06T04:09:06;10.37;;;6.67;;
55222;SDS011;41090;48.632;12.428;2023-04-06T04:13:59;9.63;;;6.67;;
55222;SDS011;41090;48.632;12.428;2023-04-06T04:16:24;8.87;;;6.77;;
55222;SDS011;41090;48.632;12.428;2023-04-06T04:18:50;8.30;;;6.33;;
55222;SDS011;41090;48.632;12.428;2023-04-06T04:21:15;10.33;;;7.37;;
55222;SDS011;41090;48.632;12.428;2023-04-06T04:23:40;9.63;;;6.90;;
55222;SDS011;41090;48.632;12.428;2023-04-06T04:26:05;9.83;;;7.30;;
55222;SDS011;41090;48.632;12.428;2023-04-06T04:28:31;9.07;;;6.87;;
55222;SDS011;41090;48.632;12.428;2023-04-06T04:30:56;8.20;;;6.57;;
55222;SDS011;41090;48.632;12.428;2023-04-06T04:33:21;9.60;;;7.20;;
55222;SDS011;41090;48.632;12.428;2023-04-06T04:35:46;8.23;;;6.57;;
55222;SDS011;41090;48.632;12.428;2023-04-06T04:38:12;8.40;;;7.00;;
55222;SDS011;41090;48.632;12.428;2023-04-06T04:40:37;9.07;;;6.90;;
55222;SDS011;41090;48.632;12.428;2023-04-06T04:43:02;12.73;;;7.80;;
55222;SDS011;41090;48.632;12.428;2023-04-06T04:45:27;10.90;;;7.23;;
55222;SDS011;41090;48.632;12.428;2023-04-06T04:47:52;8.57;;;7.27;;
55222;SDS011;41090;48.632;12.428;2023-04-06T04:50:18;10.87;;;7.93;;
55222;SDS011;41090;48.632;12.428;2023-04-06T04:52:43;8.80;;;6.40;;
55222;SDS011;41090;48.632;12.428;2023-04-06T04:55:08;8.70;;;6.80;;
55222;SDS011;41090;48.632;12.428;2023-04-06T04:57:33;10.87;;;6.83;;
55222;SDS011;41090;48.632;12.428;2023-04-06T04:59:59;10.17;;;7.03;;
55222;SDS011;41090;48.632;12.428;2023-04-06T05:02:24;10.33;;;7.90;;
55222;SDS011;41090;48.632;12.428;2023-04-06T05:04:49;9.70;;;7.63;;
55222;SDS011;41090;48.632;12.428;2023-04-06T05:07:15;10.43;;;8.07;;
55222;SDS011;41090;48.632;12.428;2023-04-06T05:09:43;9.83;;;7.10;;
55222;SDS011;41090;48.632;12.428;2023-04-06T05:12:08;10.07;;;7.60;;
55222;SDS011;41090;48.632;12.428;2023-04-06T05:14:34;7.97;;;7.07;;
55222;SDS011;41090;48.632;12.428;2023-04-06T05:17:00;9.17;;;7.40;;
55222;SDS011;41090;48.632;12.428;2023-04-06T05:19:25;10.63;;;9.13;;
55222;SDS011;41090;48.632;12.428;2023-04-06T05:21:50;11.80;;;9.47;;
55222;SDS011;41090;48.632;12.428;2023-04-06T05:24:15;11.90;;;8.83;;
55222;SDS011;41090;48.632;12.428;2023-04-06T05:26:40;12.00;;;8.10;;
55222;SDS011;41090;48.632;12.428;2023-04-06T05:29:06;9.97;;;8.47;;
55222;SDS011;41090;48.632;12.428;2023-04-06T05:31:31;12.80;;;7.80;;
55222;SDS011;41090;48.632;12.428;2023-04-06T05:33:57;12.17;;;8.73;;
55222;SDS011;41090;48.632;12.428;2023-04-06T05:36:22;12.13;;;8.37;;
55222;SDS011;41090;48.632;12.428;2023-04-06T05:38:47;11.90;;;8.50;;
55222;SDS011;41090;48.632;12.428;2023-04-06T05:41:13;13.07;;;8.90;;
55222;SDS011;41090;48.632;12.428;2023-04-06T05:43:38;9.10;;;7.73;;
55222;SDS011;41090;48.632;12.428;2023-04-06T05:46:03;8.63;;;7.00;;
55222;SDS011;41090;48.632;12.428;2023-04-06T05:48:28;9.30;;;7.80;;
55222;SDS011;41090;48.632;12.428;2023-04-06T05:50:54;9.50;;;8.00;;
55222;SDS011;41090;48.632;12.428;2023-04-06T05:53:27;11.70;;;9.03;;
55222;SDS011;41090;48.632;12.428;2023-04-06T05:55:54;12.90;;;8.93;;
55222;SDS011;41090;48.632;12.428;2023-04-06T05:58:19;11.13;;;9.57;;
55222;SDS011;41090;48.632;12.428;2023-04-06T06:00:44;13.83;;;11.60;;
55222;SDS011;41090;48.632;12.428;2023-04-06T06:03:11;11.73;;;10.40;;
55222;SDS011;41090;48.632;12.428;2023-04-06T06:05:36;11.83;;;10.17;;
55222;SDS011;41090;48.632;12.428;2023-04-06T06:08:02;10.03;;;9.03;;
55222;SDS011;41090;48.632;12.428;2023-04-06T06:10:27;9.40;;;8.40;;
55222;SDS011;41090;48.632;12.428;2023-04-06T06:12:52;8.30;;;7.50;;
55222;SDS011;41090;48.632;12.428;2023-04-06T06:15:17;7.70;;;7.00;;
55222;SDS011;41090;48.632;12.428;2023-04-06T06:17:43;11.00;;;7.63;;
55222;SDS011;41090;48.632;12.428;2023-04-06T06:20:08;11.00;;;8.13;;
55222;SDS011;41090;48.632;12.428;2023-04-06T06:22:33;11.27;;;8.33;;
55222;SDS011;41090;48.632;12.428;2023-04-06T06:24:59;12.53;;;8.53;;
55222;SDS011;41090;48.632;12.428;2023-04-06T06:27:24;10.57;;;7.70;;
55222;SDS011;41090;48.632;12.428;2023-04-06T06:29:49;10.47;;;8.07;;
55222;SDS011;41090;48.632;12.428;2023-04-06T06:32:15;11.83;;;8.00;;
55222;SDS011;41090;48.632;12.428;2023-04-06T06:34:40;8.03;;;7.23;;
55222;SDS011;41090;48.632;12.428;2023-04-06T06:37:05;9.57;;;7.50;;
55222;SDS011;41090;48.632;12.428;2023-04-06T06:39:31;11.53;;;8.03;;
55222;SDS011;41090;48.632;12.428;2023-04-06T06:41:56;9.97;;;7.73;;
55222;SDS011;41090;48.632;12.428;2023-04-06T06:44:21;11.27;;;8.07;;
55222;SDS011;41090;48.632;12.428;2023-04-06T06:46:47;11.60;;;7.47;;
55222;SDS011;41090;48.632;12.428;2023-04-06T06:49:12;9.40;;;7.47;;
55222;SDS011;41090;48.632;12.428;2023-04-06T06:51:38;10.67;;;8.80;;
55222;SDS011;41090;48.632;12.428;2023-04-06T06:54:03;9.90;;;8.43;;
55222;SDS011;41090;48.632;12.428;2023-04-06T06:56:29;9.63;;;8.50;;
55222;SDS011;41090;48.632;12.428;2023-04-06T06:58:54;9.33;;;7.93;;
55222;SDS011;41090;48.632;12.428;2023-04-06T07:01:19;11.50;;;8.50;;
55222;SDS011;41090;48.632;12.428;2023-04-06T07:03:46;9.80;;;8.53;;
55222;SDS011;41090;48.632;12.428;2023-04-06T07:06:11;9.97;;;8.27;;
55222;SDS011;41090;48.632;12.428;2023-04-06T07:08:36;9.90;;;7.93;;
55222;SDS011;41090;48.632;12.428;2023-04-06T07:11:02;9.90;;;7.97;;
55222;SDS011;41090;48.632;12.428;2023-04-06T07:13:27;9.50;;;7.80;;
55222;SDS011;41090;48.632;12.428;2023-04-06T07:15:52;9.10;;;8.13;;
55222;SDS011;41090;48.632;12.428;2023-04-06T07:18:18;9.40;;;7.80;;
55222;SDS011;41090;48.632;12.428;2023-04-06T07:20:43;9.83;;;7.87;;
55222;SDS011;41090;48.632;12.428;2023-04-06T07:23:09;8.83;;;7.67;;
55222;SDS011;41090;48.632;12.428;2023-04-06T07:25:34;9.10;;;7.30;;
55222;SDS011;41090;48.632;12.428;2023-04-06T07:28:00;10.37;;;7.60;;
55222;SDS011;41090;48.632;12.428;2023-04-06T07:30:25;9.50;;;7.33;;
55222;SDS011;41090;48.632;12.428;2023-04-06T07:32:54;9.67;;;7.23;;
55222;SDS011;41090;48.632;12.428;2023-04-06T07:35:26;8.97;;;7.60;;
55222;SDS011;41090;48.632;12.428;2023-04-06T07:37:52;8.27;;;7.10;;
55222;SDS011;41090;48.632;12.428;2023-04-06T07:40:17;8.37;;;7.20;;
55222;SDS011;41090;48.632;12.428;2023-04-06T07:42:43;9.17;;;7.30;;
55222;SDS011;41090;48.632;12.428;2023-04-06T07:45:08;9.03;;;7.90;;
55222;SDS011;41090;48.632;12.428;2023-04-06T07:47:33;8.40;;;7.53;;
55222;SDS011;41090;48.632;12.428;2023-04-06T07:49:58;11.17;;;7.30;;
55222;SDS011;41090;48.632;12.428;2023-04-06T07:52:24;8.33;;;6.83;;
55222;SDS011;41090;48.632;12.428;2023-04-06T07:54:49;10.67;;;7.30;;
55222;SDS011;41090;48.632;12.428;2023-04-06T07:57:14;8.90;;;7.50;;
55222;SDS011;41090;48.632;12.428;2023-04-06T07:59:40;7.57;;;6.67;;
55222;SDS011;41090;48.632;12.428;2023-04-06T08:02:09;7.37;;;6.30;;
55222;SDS011;41090;48.632;12.428;2023-04-06T08:04:36;7.03;;;6.33;;
55222;SDS011;41090;48.632;12.428;2023-04-06T08:07:01;7.20;;;6.50;;
55222;SDS011;41090;48.632;12.428;2023-04-06T08:09:27;6.83;;;6.03;;
55222;SDS011;41090;48.632;12.428;2023-04-06T08:11:53;7.87;;;6.40;;
55222;SDS011;41090;48.632;12.428;2023-04-06T08:14:18;6.50;;;5.77;;
55222;SDS011;41090;48.632;12.428;2023-04-06T08:16:43;8.63;;;6.73;;
55222;SDS011;41090;48.632;12.428;2023-04-06T08:19:08;6.50;;;5.83;;
55222;SDS011;41090;48.632;12.428;2023-04-06T08:21:34;8.40;;;6.53;;
55222;SDS011;41090;48.632;12.428;2023-04-06T08:24:00;7.20;;;6.50;;
55222;SDS011;41090;48.632;12.428;2023-04-06T08:26:25;8.93;;;7.10;;
55222;SDS011;41090;48.632;12.428;2023-04-06T08:28:51;7.67;;;6.90;;
55222;SDS011;41090;48.632;12.428;2023-04-06T08:31:16;8.53;;;6.90;;
55222;SDS011;41090;48.632;12.428;2023-04-06T08:33:41;7.57;;;6.30;;
55222;SDS011;41090;48.632;12.428;2023-04-06T08:36:07;7.07;;;6.30;;
55222;SDS011;41090;48.632;12.428;2023-04-06T08:38:47;6.83;;;6.10;;
55222;SDS011;41090;48.632;12.428;2023-04-06T08:41:13;6.50;;;5.90;;
55222;SDS011;41090;48.632;12.428;2023-04-06T08:43:43;6.93;;;6.30;;
55222;SDS011;41090;48.632;12.428;2023-04-06T08:46:21;6.83;;;5.93;;
55222;SDS011;41090;48.632;12.428;2023-04-06T08:48:48;6.10;;;5.50;;
55222;SDS011;41090;48.632;12.428;2023-04-06T08:51:17;6.50;;;5.80;;
55222;SDS011;41090;48.632;12.428;2023-04-06T08:53:43;6.73;;;5.87;;
55222;SDS011;41090;48.632;12.428;2023-04-06T08:56:09;6.67;;;5.67;;
55222;SDS011;41090;48.632;12.428;2023-04-06T08:58:35;6.43;;;5.43;;
55222;SDS011;41090;48.632;12.428;2023-04-06T09:01:02;8.97;;;6.27;;
55222;SDS011;41090;48.632;12.428;2023-04-06T09:03:30;7.37;;;5.47;;
55222;SDS011;41090;48.632;12.428;2023-04-06T09:05:56;6.60;;;5.50;;
55222;SDS011;41090;48.632;12.428;2023-04-06T09:08:21;5.73;;;5.13;;
55222;SDS011;41090;48.632;12.428;2023-04-06T09:10:47;6.77;;;5.50;;
55222;SDS011;41090;48.632;12.428;2023-04-06T09:13:12;5.97;;;5.30;;
55222;SDS011;41090;48.632;12.428;2023-04-06T09:15:38;5.70;;;5.10;;
55222;SDS011;41090;48.632;12.428;2023-04-06T09:18:03;4.43;;;4.03;;
55222;SDS011;41090;48.632;12.428;2023-04-06T09:20:28;6.87;;;4.93;;
55222;SDS011;41090;48.632;12.428;2023-04-06T09:22:54;5.78;;;5.15;;
55222;SDS011;41090;48.632;12.428;2023-04-06T09:25:23;5.38;;;4.88;;
55222;SDS011;41090;48.632;12.428;2023-04-06T09:27:49;6.18;;;4.90;;
55222;SDS011;41090;48.632;12.428;2023-04-06T09:30:22;5.78;;;4.53;;
55222;SDS011;41090;48.632;12.428;2023-04-06T09:32:50;5.70;;;4.80;;
55222;SDS011;41090;48.632;12.428;2023-04-06T09:35:16;5.38;;;4.88;;
55222;SDS011;41090;48.632;12.428;2023-04-06T09:37:46;5.93;;;5.40;;
55222;SDS011;41090;48.632;12.428;2023-04-06T09:40:11;5.82;;;5.10;;
55222;SDS011;41090;48.632;12.428;2023-04-06T09:42:39;5.75;;;5.07;;
55222;SDS011;41090;48.632;12.428;2023-04-06T09:45:05;5.60;;;5.10;;
55222;SDS011;41090;48.632;12.428;2023-04-06T09:47:31;6.57;;;5.30;;
55222;SDS011;41090;48.632;12.428;2023-04-06T09:49:57;5.50;;;5.10;;
55222;SDS011;41090;48.632;12.428;2023-04-06T09:52:26;5.30;;;4.80;;
55222;SDS011;41090;48.632;12.428;2023-04-06T09:54:54;5.90;;;5.30;;
55222;SDS011;41090;48.632;12.428;2023-04-06T09:57:36;5.93;;;5.32;;
55222;SDS011;41090;48.632;12.428;2023-04-06T10:02:50;6.05;;;5.45;;
55222;SDS011;41090;48.632;12.428;2023-04-06T10:06:00;5.53;;;5.03;;
55222;SDS011;41090;48.632;12.428;2023-04-06T10:08:06;5.95;;;5.35;;
55222;SDS011;41090;48.632;12.428;2023-04-06T10:10:33;5.18;;;4.68;;
55222;SDS011;41090;48.632;12.428;2023-04-06T10:12:58;5.68;;;5.18;;
55222;SDS011;41090;48.632;12.428;2023-04-06T10:15:27;5.38;;;4.88;;
55222;SDS011;41090;48.632;12.428;2023-04-06T10:17:52;4.90;;;4.50;;
55222;SDS011;41090;48.632;12.428;2023-04-06T10:25:33;4.57;;;4.18;;
55222;SDS011;41090;48.632;12.428;2023-04-06T10:28:08;5.32;;;4.82;;
55222;SDS011;41090;48.632;12.428;2023-04-06T10:30:41;5.70;;;5.20;;
55222;SDS011;41090;48.632;12.428;2023-04-06T10:33:15;5.05;;;4.65;;
55222;SDS011;41090;48.632;12.428;2023-04-06T10:35:44;5.90;;;5.40;;
55222;SDS011;41090;48.632;12.428;2023-04-06T10:38:09;6.53;;;5.88;;
55222;SDS011;41090;48.632;12.428;2023-04-06T10:40:37;6.32;;;5.72;;
55222;SDS011;41090;48.632;12.428;2023-04-06T10:43:09;6.47;;;5.88;;
55222;SDS011;41090;48.632;12.428;2023-04-06T10:45:34;7.35;;;6.03;;
55222;SDS011;41090;48.632;12.428;2023-04-06T10:48:00;6.03;;;5.53;;
55222;SDS011;41090;48.632;12.428;2023-04-06T10:50:26;6.20;;;5.63;;
55222;SDS011;41090;48.632;12.428;2023-04-06T10:53:01;6.50;;;5.90;;
55222;SDS011;41090;48.632;12.428;2023-04-06T10:55:27;6.18;;;5.63;;
55222;SDS011;41090;48.632;12.428;2023-04-06T10:57:53;6.72;;;5.60;;
55222;SDS011;41090;48.632;12.428;2023-04-06T11:00:18;5.93;;;5.43;;
55222;SDS011;41090;48.632;12.428;2023-04-06T11:02:44;6.00;;;5.43;;
55222;SDS011;41090;48.632;12.428;2023-04-06T11:05:11;5.63;;;5.13;;
55222;SDS011;41090;48.632;12.428;2023-04-06T11:07:39;5.95;;;5.45;;
55222;SDS011;41090;48.632;12.428;2023-04-06T11:10:05;5.97;;;5.38;;
55222;SDS011;41090;48.632;12.428;2023-04-06T11:12:31;5.45;;;4.88;;
55222;SDS011;41090;48.632;12.428;2023-04-06T11:14:57;6.07;;;5.50;;
55222;SDS011;41090;48.632;12.428;2023-04-06T11:17:32;6.03;;;5.43;;
55222;SDS011;41090;48.632;12.428;2023-04-06T11:19:58;6.40;;;5.80;;
55222;SDS011;41090;48.632;12.428;2023-04-06T11:22:24;5.50;;;5.05;;
55222;SDS011;41090;48.632;12.428;2023-04-06T11:24:49;5.78;;;5.28;;
55222;SDS011;41090;48.632;12.428;2023-04-06T11:27:14;5.90;;;5.40;;
55222;SDS011;41090;48.632;12.428;2023-04-06T11:29:42;9.60;;;8.80;;
55222;SDS011;41090;48.632;12.428;2023-04-06T11:32:08;8.45;;;7.07;;
55222;SDS011;41090;48.632;12.428;2023-04-06T11:34:34;6.97;;;6.45;;
55222;SDS011;41090;48.632;12.428;2023-04-06T11:37:04;7.00;;;6.30;;
55222;SDS011;41090;48.632;12.428;2023-04-06T11:39:32;11.38;;;10.18;;
55222;SDS011;41090;48.632;12.428;2023-04-06T11:42:02;7.20;;;6.60;;
55222;SDS011;41090;48.632;12.428;2023-04-06T11:47:00;13.82;;;11.07;;
55222;SDS011;41090;48.632;12.428;2023-04-06T11:49:28;15.10;;;13.38;;
55222;SDS011;41090;48.632;12.428;2023-04-06T11:51:54;6.63;;;6.03;;
55222;SDS011;41090;48.632;12.428;2023-04-06T11:54:40;6.40;;;5.80;;
55222;SDS011;41090;48.632;12.428;2023-04-06T11:57:08;6.65;;;6.00;;
55222;SDS011;41090;48.632;12.428;2023-04-06T11:59:33;6.82;;;6.07;;
55222;SDS011;41090;48.632;12.428;2023-04-06T12:01:59;7.13;;;6.30;;
55222;SDS011;41090;48.632;12.428;2023-04-06T12:04:25;6.75;;;6.25;;
55222;SDS011;41090;48.632;12.428;2023-04-06T12:06:53;6.90;;;6.30;;
55222;SDS011;41090;48.632;12.428;2023-04-06T12:09:18;7.05;;;6.35;;
55222;SDS011;41090;48.632;12.428;2023-04-06T12:11:43;8.20;;;6.30;;
55222;SDS011;41090;48.632;12.428;2023-04-06T12:14:08;7.50;;;6.40;;
55222;SDS011;41090;48.632;12.428;2023-04-06T12:16:34;6.03;;;5.43;;
55222;SDS011;41090;48.632;12.428;2023-04-06T12:19:00;7.13;;;6.47;;
55222;SDS011;41090;48.632;12.428;2023-04-06T12:21:29;7.68;;;6.82;;
55222;SDS011;41090;48.632;12.428;2023-04-06T12:23:56;6.82;;;6.22;;
55222;SDS011;41090;48.632;12.428;2023-04-06T12:26:21;6.90;;;6.28;;
55222;SDS011;41090;48.632;12.428;2023-04-06T12:28:46;6.50;;;5.90;;
55222;SDS011;41090;48.632;12.428;2023-04-06T12:31:15;6.43;;;5.80;;
55222;SDS011;41090;48.632;12.428;2023-04-06T12:33:41;6.47;;;5.68;;
55222;SDS011;41090;48.632;12.428;2023-04-06T12:36:11;7.75;;;6.68;;
55222;SDS011;41090;48.632;12.428;2023-04-06T12:38:39;6.90;;;6.30;;
55222;SDS011;41090;48.632;12.428;2023-04-06T12:41:06;6.78;;;6.18;;
55222;SDS011;41090;48.632;12.428;2023-04-06T12:43:31;7.43;;;6.72;;
55222;SDS011;41090;48.632;12.428;2023-04-06T12:45:56;7.93;;;6.70;;
55222;SDS011;41090;48.632;12.428;2023-04-06T12:48:21;8.25;;;7.43;;
55222;SDS011;41090;48.632;12.428;2023-04-06T12:50:53;6.80;;;6.20;;
55222;SDS011;41090;48.632;12.428;2023-04-06T12:53:18;8.50;;;7.70;;
55222;SDS011;41090;48.632;12.428;2023-04-06T12:55:44;8.32;;;7.53;;
55222;SDS011;41090;48.632;12.428;2023-04-06T12:58:09;7.10;;;6.50;;
55222;SDS011;41090;48.632;12.428;2023-04-06T13:00:35;7.37;;;6.77;;
55222;SDS011;41090;48.632;12.428;2023-04-06T13:03:00;6.40;;;5.90;;
55222;SDS011;41090;48.632;12.428;2023-04-06T13:05:26;7.37;;;6.73;;
55222;SDS011;41090;48.632;12.428;2023-04-06T13:07:51;7.33;;;6.53;;
55222;SDS011;41090;48.632;12.428;2023-04-06T13:10:16;7.13;;;6.43;;
55222;SDS011;41090;48.632;12.428;2023-04-06T13:12:41;7.87;;;6.63;;
55222;SDS011;41090;48.632;12.428;2023-04-06T13:15:08;7.27;;;6.67;;
55222;SDS011;41090;48.632;12.428;2023-04-06T13:17:33;7.00;;;6.37;;
55222;SDS011;41090;48.632;12.428;2023-04-06T13:19:58;7.27;;;6.57;;
55222;SDS011;41090;48.632;12.428;2023-04-06T13:22:24;7.80;;;7.00;;
55222;SDS011;41090;48.632;12.428;2023-04-06T13:24:49;7.70;;;7.00;;
55222;SDS011;41090;48.632;12.428;2023-04-06T13:27:31;7.93;;;7.17;;
55222;SDS011;41090;48.632;12.428;2023-04-06T13:29:58;8.23;;;7.43;;
55222;SDS011;41090;48.632;12.428;2023-04-06T13:32:25;8.30;;;7.50;;
55222;SDS011;41090;48.632;12.428;2023-04-06T13:34:53;7.17;;;6.47;;
55222;SDS011;41090;48.632;12.428;2023-04-06T13:37:21;7.90;;;7.20;;
55222;SDS011;41090;48.632;12.428;2023-04-06T13:39:46;7.80;;;7.10;;
55222;SDS011;41090;48.632;12.428;2023-04-06T13:42:12;10.00;;;7.43;;
55222;SDS011;41090;48.632;12.428;2023-04-06T13:44:37;6.77;;;6.17;;
55222;SDS011;41090;48.632;12.428;2023-04-06T13:47:03;7.13;;;6.53;;
55222;SDS011;41090;48.632;12.428;2023-04-06T13:49:29;8.57;;;6.57;;
55222;SDS011;41090;48.632;12.428;2023-04-06T13:51:55;8.00;;;6.70;;
55222;SDS011;41090;48.632;12.428;2023-04-06T13:54:20;7.40;;;6.80;;
55222;SDS011;41090;48.632;12.428;2023-04-06T13:56:45;7.60;;;6.90;;
55222;SDS011;41090;48.632;12.428;2023-04-06T13:59:10;7.37;;;6.73;;
55222;SDS011;41090;48.632;12.428;2023-04-06T14:01:38;7.63;;;6.93;;
55222;SDS011;41090;48.632;12.428;2023-04-06T14:04:03;6.93;;;6.33;;
55222;SDS011;41090;48.632;12.428;2023-04-06T14:06:28;7.47;;;6.77;;
55222;SDS011;41090;48.632;12.428;2023-04-06T14:09:05;7.10;;;6.40;;
55222;SDS011;41090;48.632;12.428;2023-04-06T14:11:30;7.27;;;6.67;;
55222;SDS011;41090;48.632;12.428;2023-04-06T14:13:56;6.90;;;6.30;;
55222;SDS011;41090;48.632;12.428;2023-04-06T14:16:23;7.60;;;6.90;;
55222;SDS011;41090;48.632;12.428;2023-04-06T14:18:48;8.50;;;7.17;;
55222;SDS011;41090;48.632;12.428;2023-04-06T14:21:13;7.23;;;6.40;;
55222;SDS011;41090;48.632;12.428;2023-04-06T14:23:39;7.70;;;6.90;;
55222;SDS011;41090;48.632;12.428;2023-04-06T14:26:05;7.67;;;6.90;;
55222;SDS011;41090;48.632;12.428;2023-04-06T14:28:34;7.70;;;7.00;;
55222;SDS011;41090;48.632;12.428;2023-04-06T14:31:00;6.70;;;6.10;;
55222;SDS011;41090;48.632;12.428;2023-04-06T14:33:26;7.40;;;5.80;;
55222;SDS011;41090;48.632;12.428;2023-04-06T14:35:52;6.43;;;5.70;;
55222;SDS011;41090;48.632;12.428;2023-04-06T14:38:17;6.63;;;6.03;;
55222;SDS011;41090;48.632;12.428;2023-04-06T14:40:42;6.00;;;5.50;;